createdAt,value
2019-01-06T00:01:51.780Z,-6.75
2019-01-06T00:04:40.042Z,-6.72
2019-01-06T00:07:29.795Z,-6.75
2019-01-06T00:10:18.082Z,-6.70
2019-01-06T00:13:12.498Z,-6.82
2019-01-06T00:15:59.818Z,-6.61
2019-01-06T00:18:48.096Z,-6.75
2019-01-06T00:21:51.782Z,-6.68
2019-01-06T00:24:39.749Z,-6.78
2019-01-06T00:27:26.790Z,-6.77
2019-01-06T00:30:24.187Z,-6.71
2019-01-06T00:33:27.613Z,-6.69
2019-01-06T00:36:28.020Z,-6.56
2019-01-06T00:39:16.347Z,-6.58
2019-01-06T00:42:13.747Z,-6.56
2019-01-06T00:45:10.967Z,-6.59
2019-01-06T00:48:05.505Z,-6.63
2019-01-06T00:51:12.322Z,-6.47
2019-01-06T00:53:59.790Z,-6.45
2019-01-06T00:56:46.947Z,-6.42
2019-01-06T00:59:33.857Z,-6.48
2019-01-06T01:02:20.095Z,-6.44
2019-01-06T01:05:07.177Z,-6.49
2019-01-06T01:08:01.289Z,-6.82
2019-01-06T01:11:04.982Z,-6.62
2019-01-06T01:13:56.068Z,-6.54
2019-01-06T01:16:50.500Z,-6.42
2019-01-06T01:19:38.765Z,-6.38
2019-01-06T01:22:27.069Z,-6.37
2019-01-06T01:25:30.800Z,-6.35
2019-01-06T01:28:25.364Z,-6.27
2019-01-06T01:31:19.958Z,-6.20
2019-01-06T01:34:17.161Z,-6.19
2019-01-06T01:37:04.346Z,-6.11
2019-01-06T01:39:52.043Z,-6.06
2019-01-06T01:42:39.369Z,-6.08
2019-01-06T01:45:42.767Z,-5.99
2019-01-06T01:48:33.536Z,-5.97
2019-01-06T01:51:20.664Z,-6.27
2019-01-06T01:54:24.113Z,-6.16
2019-01-06T01:57:15.182Z,-6.02
2019-01-06T02:00:15.249Z,-5.87
2019-01-06T02:03:02.221Z,-5.88
2019-01-06T02:05:49.529Z,-5.98
2019-01-06T02:08:26.744Z,-6.05
2019-01-06T02:11:18.087Z,-5.99
2019-01-06T02:14:04.999Z,-5.92
2019-01-06T02:16:51.925Z,-5.84
2019-01-06T02:19:50.961Z,-5.88
2019-01-06T02:22:54.600Z,-6.04
2019-01-06T02:25:48.370Z,-5.96
2019-01-06T02:28:39.690Z,-5.93
2019-01-06T02:31:23.765Z,-5.92
2019-01-06T02:34:18.323Z,-5.82
2019-01-06T02:37:05.276Z,-5.76
2019-01-06T02:40:08.904Z,-5.71
2019-01-06T02:42:59.710Z,-5.73
2019-01-06T02:45:51.113Z,-5.89
2019-01-06T02:48:42.484Z,-6.08
2019-01-06T02:51:37.744Z,-6.04
2019-01-06T02:54:37.799Z,-6.01
2019-01-06T02:57:25.097Z,-6.12
2019-01-06T03:00:31.855Z,-5.99
2019-01-06T03:03:18.785Z,-5.97
2019-01-06T03:06:22.293Z,-5.88
2019-01-06T03:09:09.334Z,-5.78
2019-01-06T03:11:57.631Z,-5.72
2019-01-06T03:14:38.885Z,-5.71
2019-01-06T03:17:36.251Z,-5.69
2019-01-06T03:20:23.654Z,-5.61
2019-01-06T03:23:16.602Z,-5.56
2019-01-06T03:26:03.719Z,-5.45
2019-01-06T03:28:51.430Z,-5.43
2019-01-06T03:31:39.731Z,-5.52
2019-01-06T03:34:27.259Z,-5.46
2019-01-06T03:37:14.182Z,-5.65
2019-01-06T03:40:04.379Z,-5.69
2019-01-06T03:42:51.594Z,-5.63
2019-01-06T03:45:39.997Z,-5.75
2019-01-06T03:48:27.259Z,-5.61
2019-01-06T03:51:30.708Z,-5.67
2019-01-06T03:54:17.227Z,-5.82
2019-01-06T03:57:14.756Z,-5.86
2019-01-06T04:00:06.205Z,-5.86
2019-01-06T04:03:03.606Z,-5.86
2019-01-06T04:06:03.987Z,-6.10
2019-01-06T04:09:01.222Z,-6.06
2019-01-06T04:11:55.381Z,-5.92
2019-01-06T04:14:42.386Z,-5.93
2019-01-06T04:17:39.513Z,-5.95
2019-01-06T04:20:30.696Z,-5.92
2019-01-06T04:23:21.045Z,-5.91
2019-01-06T04:26:19.738Z,-5.68
2019-01-06T04:29:20.147Z,-5.46
2019-01-06T04:32:07.226Z,-5.34
2019-01-06T04:34:58.257Z,-5.39
2019-01-06T04:38:01.905Z,-5.30
2019-01-06T04:40:57.864Z,-5.31
2019-01-06T04:43:55.645Z,-5.39
2019-01-06T04:46:42.584Z,-5.34
2019-01-06T04:49:29.883Z,-5.33
2019-01-06T04:52:17.169Z,-5.32
2019-01-06T04:55:08.277Z,-5.19
2019-01-06T04:57:55.100Z,-5.22
2019-01-06T05:00:58.590Z,-5.25
2019-01-06T05:03:45.476Z,-5.45
2019-01-06T05:06:42.888Z,-5.45
2019-01-06T05:09:31.157Z,-5.42
2019-01-06T05:12:11.937Z,-5.32
2019-01-06T05:15:15.510Z,-5.27
2019-01-06T05:18:02.681Z,-5.23
2019-01-06T05:20:49.733Z,-5.27
2019-01-06T05:23:36.788Z,-5.29
2019-01-06T05:26:26.647Z,-5.25
2019-01-06T05:29:15.601Z,-5.10
2019-01-06T05:32:02.482Z,-5.11
2019-01-06T05:34:56.701Z,-5.02
2019-01-06T05:37:44.994Z,-4.85
2019-01-06T05:40:32.136Z,-4.90
2019-01-06T05:43:19.369Z,-4.90
2019-01-06T05:46:06.431Z,-4.94
2019-01-06T05:48:57.781Z,-4.88
2019-01-06T05:51:53.747Z,-4.79
2019-01-06T05:54:34.368Z,-4.88
2019-01-06T05:57:28.896Z,-4.85
2019-01-06T06:00:32.359Z,-4.79
2019-01-06T06:03:20.944Z,-4.76
2019-01-06T06:06:18.297Z,-4.76
2019-01-06T06:08:57.486Z,-4.66
2019-01-06T06:11:54.962Z,-4.49
2019-01-06T06:14:58.519Z,-4.44
2019-01-06T06:17:42.956Z,-4.38
2019-01-06T06:20:30.195Z,-4.44
2019-01-06T06:23:17.079Z,-4.40
2019-01-06T06:26:04.317Z,-4.35
2019-01-06T06:29:11.008Z,-4.35
2019-01-06T06:32:02.325Z,-4.25
2019-01-06T06:34:55.544Z,-4.29
2019-01-06T06:37:41.306Z,-4.20
2019-01-06T06:40:30.112Z,-4.04
2019-01-06T06:43:17.380Z,-3.72
2019-01-06T06:46:05.650Z,-3.52
2019-01-06T06:48:52.557Z,-3.33
2019-01-06T06:51:39.759Z,-3.20
2019-01-06T06:54:31.171Z,-3.17
2019-01-06T06:57:52.924Z,-3.14
2019-01-06T07:01:08.483Z,-3.09
2019-01-06T07:03:56.998Z,-3.12
2019-01-06T07:06:48.738Z,-3.07
2019-01-06T07:09:30.109Z,-3.02
2019-01-06T07:12:17.325Z,-3.02
2019-01-06T07:15:04.333Z,-2.97
2019-01-06T07:18:26.703Z,-2.96
2019-01-06T07:21:27.246Z,-2.99
2019-01-06T07:24:14.138Z,-2.89
2019-01-06T07:27:01.665Z,-2.90
2019-01-06T07:29:48.971Z,-2.91
2019-01-06T07:32:36.011Z,-2.91
2019-01-06T07:35:22.958Z,-2.77
2019-01-06T07:38:12.126Z,-2.75
2019-01-06T07:40:59.059Z,-2.73
2019-01-06T07:43:45.976Z,-2.68
2019-01-06T07:46:49.769Z,-2.59
2019-01-06T07:49:47.033Z,-2.45
2019-01-06T07:52:41.499Z,-2.39
2019-01-06T07:55:35.865Z,-2.32
2019-01-06T07:58:30.860Z,-2.24
2019-01-06T08:01:28.374Z,-2.22
2019-01-06T08:04:32.028Z,-2.21
2019-01-06T08:07:23.477Z,-2.22
2019-01-06T08:10:10.861Z,-2.23
2019-01-06T08:13:08.472Z,-2.28
2019-01-06T08:15:55.964Z,-2.31
2019-01-06T08:18:46.987Z,-2.38
2019-01-06T08:21:33.986Z,-2.38
2019-01-06T08:24:34.431Z,-2.38
2019-01-06T08:27:22.904Z,-2.38
2019-01-06T08:30:11.195Z,-2.39
2019-01-06T08:33:00.022Z,-2.38
2019-01-06T08:35:51.082Z,-2.53
2019-01-06T08:38:51.396Z,-2.63
2019-01-06T08:41:38.638Z,-2.60
2019-01-06T08:44:27.005Z,-2.64
2019-01-06T08:47:15.655Z,-2.67
2019-01-06T08:50:06.902Z,-2.63
2019-01-06T08:52:48.080Z,-2.56
2019-01-06T08:55:33.727Z,-2.47
2019-01-06T08:58:27.721Z,-2.38
2019-01-06T09:01:22.594Z,-2.35
2019-01-06T09:04:13.700Z,-2.37
2019-01-06T09:07:00.581Z,-2.45
2019-01-06T09:09:54.446Z,-2.42
2019-01-06T09:12:57.920Z,-2.35
2019-01-06T09:15:45.171Z,-2.37
2019-01-06T09:18:32.080Z,-2.41
2019-01-06T09:21:15.870Z,-2.41
2019-01-06T09:24:02.989Z,-2.43
2019-01-06T09:26:51.255Z,-2.45
2019-01-06T09:29:38.171Z,-2.43
2019-01-06T09:32:25.372Z,-2.48
2019-01-06T09:35:12.421Z,-2.50
2019-01-06T09:37:58.613Z,-2.52
2019-01-06T09:40:47.543Z,-2.40
2019-01-06T09:43:41.880Z,-2.36
2019-01-06T09:46:28.203Z,-2.40
2019-01-06T09:49:15.441Z,-2.47
2019-01-06T09:52:22.173Z,-2.52
2019-01-06T09:55:22.176Z,-2.66
2019-01-06T09:58:13.203Z,-2.58
2019-01-06T10:01:01.476Z,-2.55
2019-01-06T10:03:46.622Z,-2.53
2019-01-06T10:06:50.081Z,-2.62
2019-01-06T10:09:38.383Z,-2.67
2019-01-06T10:12:32.592Z,-2.63
2019-01-06T10:15:36.265Z,-2.54
2019-01-06T10:18:30.336Z,-2.60
2019-01-06T10:21:17.511Z,-2.59
2019-01-06T10:24:05.768Z,-2.60
2019-01-06T10:26:53.183Z,-2.60
2019-01-06T10:29:40.231Z,-2.51
2019-01-06T10:32:31.626Z,-2.48
2019-01-06T10:35:22.801Z,-2.49
2019-01-06T10:38:12.296Z,-2.49
2019-01-06T10:40:50.138Z,-2.41
2019-01-06T10:43:38.138Z,-2.37
2019-01-06T10:46:35.357Z,-2.30
2019-01-06T10:49:35.753Z,-2.32
2019-01-06T10:52:42.354Z,-2.22
2019-01-06T10:55:26.928Z,-2.20
2019-01-06T10:58:15.237Z,-2.19
2019-01-06T11:03:56.218Z,-2.05
2019-01-06T11:06:43.455Z,-2.09
2019-01-06T11:09:30.532Z,-2.07
2019-01-06T11:12:28.196Z,-1.95
2019-01-06T11:15:16.519Z,-1.95
2019-01-06T11:18:04.806Z,-1.85
2019-01-06T11:20:53.209Z,-1.82
2019-01-06T11:23:40.205Z,-1.75
2019-01-06T11:26:44.219Z,-1.71
2019-01-06T11:29:32.509Z,-1.64
2019-01-06T11:32:13.352Z,-1.71
2019-01-06T11:35:16.619Z,-1.78
2019-01-06T11:38:04.915Z,-1.75
2019-01-06T11:41:07.909Z,-1.78
2019-01-06T11:43:55.322Z,-1.73
2019-01-06T11:46:38.330Z,-1.70
2019-01-06T11:49:44.910Z,-1.57
2019-01-06T11:52:38.868Z,-1.59
2019-01-06T11:55:27.392Z,-1.55
2019-01-06T11:58:25.026Z,-1.51
2019-01-06T12:01:19.645Z,-1.43
2019-01-06T12:04:06.746Z,-1.47
2019-01-06T12:06:55.030Z,-1.46
2019-01-06T12:10:01.656Z,-1.51
2019-01-06T12:12:55.686Z,-1.53
2019-01-06T12:15:50.211Z,-1.49
2019-01-06T12:18:37.568Z,-1.50
2019-01-06T12:21:33.746Z,-1.61
2019-01-06T12:24:22.101Z,-1.51
2019-01-06T12:27:07.184Z,-1.57
2019-01-06T12:29:58.574Z,-1.47
2019-01-06T12:32:58.953Z,-1.46
2019-01-06T12:35:56.389Z,-1.47
2019-01-06T12:38:43.607Z,-1.55
2019-01-06T12:41:38.215Z,-1.53
2019-01-06T12:44:29.764Z,-1.65
2019-01-06T12:47:17.700Z,-1.65
2019-01-06T12:50:00.572Z,-1.61
2019-01-06T12:52:47.767Z,-1.57
2019-01-06T12:55:38.919Z,-1.62
2019-01-06T12:58:25.795Z,-1.63
2019-01-06T13:01:12.673Z,-1.63
2019-01-06T13:04:00.993Z,-1.57
2019-01-06T13:07:01.682Z,-1.52
2019-01-06T13:09:45.196Z,-1.43
2019-01-06T13:12:33.444Z,-1.28
2019-01-06T13:15:20.550Z,-1.25
2019-01-06T13:18:08.455Z,-1.33
2019-01-06T13:21:05.984Z,-1.32
2019-01-06T13:24:09.632Z,-1.28
2019-01-06T13:26:57.978Z,-1.34
2019-01-06T13:29:58.539Z,-1.33
2019-01-06T13:32:45.437Z,-1.22
2019-01-06T13:35:39.809Z,-1.05
2019-01-06T13:38:35.336Z,-0.86
2019-01-06T13:41:39.007Z,-0.66
2019-01-06T13:44:36.499Z,-0.83
2019-01-06T13:47:36.809Z,-0.74
2019-01-06T13:50:34.524Z,-0.68
2019-01-06T13:53:25.599Z,-0.63
2019-01-06T13:56:12.787Z,-0.79
2019-01-06T13:59:01.095Z,-0.63
2019-01-06T14:02:01.684Z,-0.45
2019-01-06T14:04:54.327Z,-0.35
2019-01-06T14:07:41.510Z,-0.23
2019-01-06T14:10:32.801Z,-0.07
2019-01-06T14:13:27.191Z,0.03
2019-01-06T14:16:21.567Z,0.04
2019-01-06T14:19:13.642Z,-0.09
2019-01-06T14:22:20.398Z,-0.23
2019-01-06T14:25:16.221Z,-0.24
2019-01-06T14:28:03.237Z,-0.17
2019-01-06T14:30:50.536Z,-0.15
2019-01-06T14:33:47.942Z,-0.18
2019-01-06T14:36:51.574Z,-0.39
2019-01-06T14:39:39.852Z,-0.47
2019-01-06T14:42:28.166Z,-0.70
2019-01-06T14:45:28.462Z,-0.80
2019-01-06T14:48:28.784Z,-0.81
2019-01-06T14:51:20.164Z,-0.77
2019-01-06T14:54:11.570Z,-0.85
2019-01-06T14:57:05.759Z,-0.95
2019-01-06T14:59:54.010Z,-0.99
2019-01-06T15:02:41.402Z,-0.94
2019-01-06T15:05:29.702Z,-1.04
2019-01-06T15:08:16.665Z,-1.09
2019-01-06T15:11:03.720Z,-1.20
2019-01-06T15:13:41.787Z,-1.24
2019-01-06T15:16:32.089Z,-1.42
2019-01-06T15:19:15.052Z,-1.50
2019-01-06T15:22:03.353Z,-1.59
2019-01-06T15:25:00.944Z,-1.63
2019-01-06T15:27:47.824Z,-1.68
2019-01-06T15:30:34.989Z,-1.77
2019-01-06T15:33:35.323Z,-1.86
2019-01-06T15:36:26.700Z,-1.97
2019-01-06T15:39:13.545Z,-2.02
2019-01-06T15:42:01.820Z,-2.11
2019-01-06T15:44:48.798Z,-2.16
2019-01-06T15:47:39.887Z,-2.17
2019-01-06T15:50:31.209Z,-2.20
2019-01-06T15:53:28.589Z,-2.18
2019-01-06T15:56:15.041Z,-2.23
2019-01-06T15:59:09.136Z,-2.19
2019-01-06T16:01:53.794Z,-2.18
2019-01-06T16:04:41.155Z,-2.18
2019-01-06T16:07:28.293Z,-2.23
2019-01-06T16:10:15.380Z,-2.24
2019-01-06T16:13:03.757Z,-2.25
2019-01-06T16:15:50.947Z,-2.28
2019-01-06T16:18:48.278Z,-2.32
2019-01-06T16:21:38.343Z,-2.34
2019-01-06T16:24:38.623Z,-2.36
2019-01-06T16:27:25.786Z,-2.36
2019-01-06T16:30:17.271Z,-2.42
2019-01-06T16:33:05.932Z,-2.40
2019-01-06T16:35:52.836Z,-2.39
2019-01-06T16:38:56.495Z,-2.43
2019-01-06T16:41:47.877Z,-2.42
2019-01-06T16:44:43.457Z,-2.47
2019-01-06T16:47:46.798Z,-2.42
2019-01-06T16:50:38.735Z,-2.48
2019-01-06T16:53:27.028Z,-2.53
2019-01-06T16:56:21.378Z,-2.57
2019-01-06T16:59:15.540Z,-2.61
2019-01-06T17:02:02.467Z,-2.66
2019-01-06T17:04:58.527Z,-2.65
2019-01-06T17:07:44.203Z,-2.61
2019-01-06T17:10:31.432Z,-2.68
2019-01-06T17:13:37.119Z,-2.68
2019-01-06T17:16:23.998Z,-2.65
2019-01-06T17:19:19.166Z,-2.67
2019-01-06T17:22:16.415Z,-2.71
2019-01-06T17:25:03.487Z,-2.71
2019-01-06T17:27:51.775Z,-2.76
2019-01-06T17:30:58.486Z,-2.71
2019-01-06T17:33:45.645Z,-2.82
2019-01-06T17:36:43.066Z,-2.80
2019-01-06T17:39:37.537Z,-2.75
2019-01-06T17:42:37.744Z,-2.72
2019-01-06T17:45:29.820Z,-2.75
2019-01-06T17:48:18.142Z,-2.69
2019-01-06T17:51:05.145Z,-2.69
2019-01-06T17:53:54.104Z,-2.73
2019-01-06T17:56:41.143Z,-2.77
2019-01-06T17:59:26.549Z,-2.76
2019-01-06T18:02:21.586Z,-2.78
2019-01-06T18:05:08.759Z,-2.80
2019-01-06T18:07:55.630Z,-2.81
2019-01-06T18:10:56.017Z,-2.78
2019-01-06T18:13:43.301Z,-2.78
2019-01-06T18:16:31.219Z,-2.78
2019-01-06T18:19:21.316Z,-2.81
2019-01-06T18:22:09.641Z,-2.87
2019-01-06T18:25:04.354Z,-2.78
2019-01-06T18:28:04.869Z,-2.75
2019-01-06T18:30:59.006Z,-2.82
2019-01-06T18:33:40.998Z,-2.84
2019-01-06T18:36:47.831Z,-2.88
2019-01-06T18:39:51.222Z,-2.86
2019-01-06T18:42:47.417Z,-2.81
2019-01-06T18:45:47.869Z,-2.88
2019-01-06T18:48:48.338Z,-2.90
2019-01-06T18:51:40.656Z,-2.88
2019-01-06T18:54:28.062Z,-2.89
2019-01-06T18:57:15.327Z,-2.88
2019-01-06T19:00:10.229Z,-2.90
2019-01-06T19:03:07.567Z,-3.01
2019-01-06T19:05:55.003Z,-3.07
2019-01-06T19:08:54.131Z,-3.07
2019-01-06T19:11:42.727Z,-3.12
2019-01-06T19:14:37.358Z,-3.10
2019-01-06T19:17:28.591Z,-3.08
2019-01-06T19:20:28.851Z,-3.04
2019-01-06T19:23:21.165Z,-2.95
2019-01-06T19:26:12.261Z,-2.97
2019-01-06T19:29:03.505Z,-2.96
2019-01-06T19:31:50.508Z,-2.97
2019-01-06T19:34:37.816Z,-2.96
2019-01-06T19:37:25.668Z,-2.94
2019-01-06T19:40:23.101Z,-2.96
2019-01-06T19:43:30.074Z,-2.93
2019-01-06T19:46:36.829Z,-2.97
2019-01-06T19:49:40.047Z,-2.99
2019-01-06T19:52:21.556Z,-2.94
2019-01-06T19:55:07.867Z,-2.90
2019-01-06T19:58:01.737Z,-2.88
2019-01-06T20:01:05.684Z,-2.88
2019-01-06T20:03:54.692Z,-2.93
2019-01-06T20:06:54.466Z,-2.98
2019-01-06T20:09:41.587Z,-2.92
2019-01-06T20:12:48.302Z,-2.95
2019-01-06T20:15:47.701Z,-2.96
2019-01-06T20:18:36.016Z,-2.89
2019-01-06T20:21:27.054Z,-2.96
2019-01-06T20:24:23.176Z,-2.89
2019-01-06T20:27:10.340Z,-2.93
2019-01-06T20:30:14.031Z,-2.92
2019-01-06T20:33:17.443Z,-2.94
2019-01-06T20:36:09.291Z,-2.91
2019-01-06T20:38:56.594Z,-2.93
2019-01-06T20:41:58.521Z,-2.96
2019-01-06T20:44:53.002Z,-2.99
2019-01-06T20:47:41.355Z,-2.99
2019-01-06T20:50:47.758Z,-3.01
2019-01-06T20:53:44.916Z,-3.03
2019-01-06T20:56:50.487Z,-3.04
2019-01-06T20:59:50.973Z,-3.02
2019-01-06T21:02:38.197Z,-3.01
2019-01-06T21:05:28.305Z,-3.00
2019-01-06T21:08:35.489Z,-2.99
2019-01-06T21:11:33.083Z,-2.98
2019-01-06T21:14:20.082Z,-2.98
2019-01-06T21:17:08.107Z,-3.02
2019-01-06T21:20:08.821Z,-2.97
2019-01-06T21:22:59.031Z,-3.02
2019-01-06T21:26:04.932Z,-3.05
2019-01-06T21:28:52.148Z,-3.04
2019-01-06T21:31:49.547Z,-3.09
2019-01-06T21:34:40.823Z,-3.08
2019-01-06T21:37:44.384Z,-3.11
2019-01-06T21:40:32.642Z,-3.13
2019-01-06T21:43:26.940Z,-3.18
2019-01-06T21:46:27.407Z,-3.21
2019-01-06T21:49:16.494Z,-3.22
2019-01-06T21:52:06.167Z,-3.19
2019-01-06T21:54:53.511Z,-3.22
2019-01-06T21:57:47.549Z,-3.22
2019-01-06T22:00:45.333Z,-3.26
2019-01-06T22:03:45.798Z,-3.43
2019-01-06T22:06:34.111Z,-3.24
2019-01-06T22:09:34.611Z,-3.26
2019-01-06T22:12:21.726Z,-3.26
2019-01-06T22:15:08.589Z,-3.31
2019-01-06T22:17:56.865Z,-3.29
2019-01-06T22:20:44.064Z,-3.35
2019-01-06T22:23:28.085Z,-3.36
2019-01-06T22:26:16.360Z,-3.37
2019-01-06T22:29:01.250Z,-3.40
2019-01-06T22:31:48.193Z,-3.41
2019-01-06T22:34:35.215Z,-3.38
2019-01-06T22:37:23.489Z,-3.40
2019-01-06T22:40:27.148Z,-3.38
2019-01-06T22:43:14.300Z,-3.42
2019-01-06T22:46:01.480Z,-3.41
2019-01-06T22:48:48.469Z,-3.43
2019-01-06T22:51:35.362Z,-3.40
2019-01-06T22:54:29.540Z,-3.34
2019-01-06T22:57:16.716Z,-3.39
2019-01-06T23:00:07.732Z,-3.35
2019-01-06T23:02:54.653Z,-3.35
2019-01-06T23:05:42.941Z,-3.37
2019-01-06T23:08:29.826Z,-3.38
2019-01-06T23:11:30.127Z,-3.38
2019-01-06T23:14:33.720Z,-3.41
2019-01-06T23:17:16.079Z,-3.38
2019-01-06T23:20:03.096Z,-3.41
2019-01-06T23:23:03.730Z,-3.43
2019-01-06T23:25:50.674Z,-3.43
2019-01-06T23:28:42.178Z,-3.45
2019-01-06T23:31:34.585Z,-3.41
2019-01-06T23:34:31.028Z,-3.39
2019-01-06T23:37:17.960Z,-3.37
2019-01-06T23:40:15.668Z,-3.37
2019-01-06T23:43:02.639Z,-3.45
2019-01-06T23:45:51.488Z,-3.48
2019-01-06T23:48:42.778Z,-3.47
2019-01-06T23:51:43.151Z,-3.45
2019-01-06T23:54:30.053Z,-3.50
2019-01-06T23:57:10.357Z,-3.47
